LEMH/MAH METAR and TAF weather

Enter ICAO airport designator
Station Type Date Time Source
LEMH METAR 2022/01/27 23:00 UTC NOAA

LEMH 272300Z AUTO 28005KT CAVOK 07/06 Q1029


Station Type Date Time Source
LEMH Decoded METAR 2022/01/27 23:00 UTC NOAA

Menorca / Mahon, Spain (LEMH) 39-52N 004-14E 82M
Jan 27, 2022 - 06:00 PM EST / 2022.01.27 2300 UTC
Wind: from the W (280 degrees) at 6 MPH (5 KT):0
Visibility: greater than 7 mile(s):0
Temperature: 44 F (7 C)
Dew Point: 42 F (6 C)
Relative Humidity: 93%
Pressure (altimeter): 30.39 in. Hg (1029 hPa)
ob: LEMH 272300Z AUTO 28005KT CAVOK 07/06 Q1029
cycle: 23

Station Type Date Time Source
LEMH TAF 2022/01/27 21:29 UTC NOAA

TAF LEMH 272000Z 2721/2821 30006KT 9999 FEW020 TX16/2812Z TN03/2806Z
TEMPO 2721/2805 2000 BR PROB40
TEMPO 2722/2806 0800 BCFG
BECMG 2810/2812 34011KT

Example: see airport list